Terminal Aerodrome Forecast
Issued by NWS

Home | Current Version | Previous Version | Text Only | Print | Product List | Glossary On
Versions: 1 2 3 4 5 6 7 8 9 10 11 12
367
FTUS44 KLUB 260520
TAFCDS
TAF
KCDS 260520Z 2606/2706 02011KT P6SM VCSH BKN100
     FM261100 36018G28KT P6SM OVC025
     FM261700 34015KT P6SM SKC=

USA.gov is the U.S. government's official web portal to all federal, state and local government web resources and services.